createdAt,value
2023-02-09T00:02:19.330Z,-0.42
2023-02-09T00:04:47.709Z,-0.41
2023-02-09T00:07:16.017Z,-0.16
2023-02-09T00:09:45.383Z,-0.11
2023-02-09T00:12:31.067Z,-0.14
2023-02-09T00:14:59.393Z,-0.35
2023-02-09T00:17:29.346Z,-0.61
2023-02-09T00:19:57.620Z,-0.83
2023-02-09T00:22:25.908Z,-0.47
2023-02-09T00:24:56.438Z,-0.67
2023-02-09T00:27:25.748Z,-0.91
2023-02-09T00:29:54.134Z,-1.60
2023-02-09T00:32:22.417Z,-1.19
2023-02-09T00:34:52.135Z,-1.26
2023-02-09T00:37:20.445Z,-0.78
2023-02-09T00:39:48.936Z,-0.56
2023-02-09T00:42:17.347Z,-0.53
2023-02-09T00:44:45.964Z,-0.42
2023-02-09T00:47:14.287Z,-0.43
2023-02-09T00:49:42.700Z,-0.48
2023-02-09T00:52:12.553Z,-1.33
2023-02-09T00:54:41.695Z,-1.24
2023-02-09T00:57:10.050Z,-1.42
2023-02-09T00:59:40.698Z,-1.47
2023-02-09T01:02:10.463Z,-0.21
2023-02-09T01:04:40.363Z,-0.28
2023-02-09T01:07:08.791Z,-0.42
2023-02-09T01:09:39.166Z,-0.74
2023-02-09T01:12:08.818Z,-1.20
2023-02-09T01:14:39.764Z,-1.06
2023-02-09T01:17:08.254Z,-0.93
2023-02-09T01:19:36.960Z,-0.91
2023-02-09T01:22:05.984Z,-1.63
2023-02-09T01:24:34.302Z,-1.88
2023-02-09T01:27:04.011Z,-1.59
2023-02-09T01:29:32.937Z,-1.85
2023-02-09T01:32:01.382Z,-2.10
2023-02-09T01:34:29.897Z,-2.33
2023-02-09T01:36:58.485Z,-1.83
2023-02-09T01:39:26.749Z,-2.19
2023-02-09T01:41:55.770Z,-2.35
2023-02-09T01:45:06.535Z,-2.57
2023-02-09T01:47:42.069Z,-2.77
2023-02-09T01:50:11.182Z,-2.65
2023-02-09T01:52:40.622Z,-2.59
2023-02-09T01:55:13.787Z,-2.74
2023-02-09T01:57:46.025Z,-1.74
2023-02-09T02:00:19.000Z,-2.89
2023-02-09T02:02:51.815Z,-2.84
2023-02-09T02:05:20.978Z,-2.19
2023-02-09T02:07:57.145Z,-1.95
2023-02-09T02:10:26.225Z,-1.97
2023-02-09T02:12:55.481Z,-2.14
2023-02-09T02:15:29.717Z,-2.21
2023-02-09T02:18:19.537Z,-2.02
2023-02-09T02:21:17.361Z,-1.48
2023-02-09T02:23:59.401Z,-1.73
2023-02-09T02:26:46.463Z,-1.75
2023-02-09T02:29:55.096Z,-2.03
2023-02-09T02:32:38.572Z,-2.88
2023-02-09T02:35:14.218Z,-2.34
2023-02-09T02:37:54.529Z,-2.27
2023-02-09T02:40:34.473Z,-1.57
2023-02-09T02:43:12.420Z,-1.01
2023-02-09T02:45:46.716Z,-2.23
2023-02-09T02:48:25.073Z,-2.15
2023-02-09T02:50:58.571Z,-2.37
2023-02-09T02:53:31.108Z,-2.21
2023-02-09T02:56:06.550Z,-2.59
2023-02-09T02:58:37.676Z,-2.46
2023-02-09T03:01:11.216Z,-2.78
2023-02-09T03:03:42.953Z,-2.46
2023-02-09T03:06:12.678Z,-2.04
2023-02-09T03:08:48.886Z,-3.07
2023-02-09T03:11:19.578Z,-2.71
2023-02-09T03:14:01.824Z,-2.66
2023-02-09T03:20:40.392Z,-1.95
2023-02-09T03:23:16.828Z,-2.02
2023-02-09T03:25:49.533Z,-1.85
2023-02-09T03:28:21.100Z,-2.27
2023-02-09T03:30:50.913Z,-2.63
2023-02-09T03:33:21.520Z,-2.59
2023-02-09T03:35:54.474Z,-3.19
2023-02-09T03:38:22.951Z,-3.14
2023-02-09T03:40:51.235Z,-3.18
2023-02-09T03:43:19.879Z,-3.16
2023-02-09T03:45:48.219Z,-3.08
2023-02-09T03:48:16.524Z,-3.31
2023-02-09T03:50:47.194Z,-3.24
2023-02-09T03:53:17.089Z,-2.91
2023-02-09T03:55:47.174Z,-2.91
2023-02-09T03:58:15.576Z,-2.52
2023-02-09T04:00:44.260Z,-2.97
2023-02-09T04:03:15.096Z,-3.18
2023-02-09T04:05:45.683Z,-3.49
2023-02-09T04:08:13.953Z,-2.78
2023-02-09T04:10:43.823Z,-2.52
2023-02-09T04:13:12.137Z,-1.90
2023-02-09T04:15:40.456Z,-2.53
2023-02-09T04:18:08.836Z,-2.57
2023-02-09T04:20:37.117Z,-2.46
2023-02-09T04:23:05.417Z,-2.30
2023-02-09T04:25:33.738Z,-2.94
2023-02-09T04:28:03.582Z,-2.72
2023-02-09T04:30:32.024Z,-3.66
2023-02-09T04:33:00.402Z,-3.46
2023-02-09T04:35:28.724Z,-3.01
2023-02-09T04:37:57.088Z,-3.37
2023-02-09T04:40:25.378Z,-3.42
2023-02-09T04:42:55.888Z,-3.48
2023-02-09T04:45:25.514Z,-3.66
2023-02-09T04:47:53.878Z,-3.61
2023-02-09T04:50:22.185Z,-3.46
2023-02-09T04:52:50.485Z,-3.05
2023-02-09T04:55:18.889Z,-2.07
2023-02-09T04:58:04.781Z,-2.17
2023-02-09T05:00:34.486Z,-1.27
2023-02-09T05:03:02.933Z,-1.24
2023-02-09T05:05:31.315Z,-2.15
2023-02-09T05:08:00.002Z,-1.43
2023-02-09T05:10:30.572Z,-1.57
2023-02-09T05:12:58.901Z,-2.27
2023-02-09T05:15:27.232Z,-2.67
2023-02-09T05:17:57.043Z,-2.68
2023-02-09T05:20:25.289Z,-2.72
2023-02-09T05:22:53.692Z,-2.67
2023-02-09T05:25:21.958Z,-2.16
2023-02-09T05:27:50.370Z,-1.80
2023-02-09T05:30:19.270Z,-2.55
2023-02-09T05:32:47.626Z,-2.26
2023-02-09T05:35:17.326Z,-2.69
2023-02-09T05:37:45.661Z,-2.42
2023-02-09T05:40:14.148Z,-2.79
2023-02-09T05:42:42.801Z,-3.11
2023-02-09T05:45:11.898Z,-2.50
2023-02-09T05:47:40.262Z,-2.33
2023-02-09T05:50:08.959Z,-2.67
2023-02-09T05:52:38.723Z,-3.01
2023-02-09T05:55:07.688Z,-3.11
2023-02-09T05:57:35.934Z,-2.88
2023-02-09T06:00:06.545Z,-3.06
2023-02-09T06:02:40.159Z,-2.58
2023-02-09T06:05:09.020Z,-2.73
2023-02-09T06:07:38.665Z,-3.58
2023-02-09T06:10:07.506Z,-3.44
2023-02-09T06:12:35.800Z,-3.37
2023-02-09T06:15:04.211Z,-3.32
2023-02-09T06:17:34.771Z,-3.71
2023-02-09T06:20:03.448Z,-3.19
2023-02-09T06:22:31.747Z,-3.25
2023-02-09T06:25:01.576Z,-3.84
2023-02-09T06:27:29.904Z,-3.49
2023-02-09T06:29:58.247Z,-2.83
2023-02-09T06:32:26.562Z,-3.11
2023-02-09T06:34:54.786Z,-3.49
2023-02-09T06:37:25.611Z,-3.05
2023-02-09T06:39:56.513Z,-2.88
2023-02-09T06:42:43.508Z,-3.58
2023-02-09T06:45:12.211Z,-2.92
2023-02-09T06:47:42.543Z,-3.21
2023-02-09T06:50:14.402Z,-3.95
2023-02-09T06:52:43.091Z,-3.50
2023-02-09T06:55:12.257Z,-2.88
2023-02-09T06:57:42.319Z,-2.99
2023-02-09T07:00:12.900Z,-3.17
2023-02-09T07:02:42.961Z,-3.54
2023-02-09T07:05:14.875Z,-3.24
2023-02-09T07:07:43.848Z,-2.85
2023-02-09T07:10:16.337Z,-2.61
2023-02-09T07:12:46.397Z,-2.82
2023-02-09T07:15:15.842Z,-3.36
2023-02-09T07:17:44.276Z,-3.28
2023-02-09T07:20:13.355Z,-3.58
2023-02-09T07:22:42.061Z,-3.25
2023-02-09T07:25:10.471Z,-2.39
2023-02-09T07:27:38.998Z,-1.78
2023-02-09T07:30:10.219Z,-3.14
2023-02-09T07:32:38.670Z,-2.99
2023-02-09T07:35:07.439Z,-3.24
2023-02-09T07:37:36.298Z,-3.21
2023-02-09T07:40:04.796Z,-2.57
2023-02-09T07:42:33.173Z,-2.61
2023-02-09T07:45:06.017Z,-2.15
2023-02-09T07:47:38.578Z,-1.63
2023-02-09T07:50:07.137Z,-1.47
2023-02-09T07:52:35.415Z,-2.51
2023-02-09T07:55:03.861Z,-1.45
2023-02-09T07:57:32.875Z,-0.41
2023-02-09T08:00:01.186Z,-1.42
2023-02-09T08:02:35.019Z,-0.95
2023-02-09T08:05:09.059Z,-0.99
2023-02-09T08:07:37.902Z,-1.82
2023-02-09T08:10:06.848Z,-0.57
2023-02-09T08:12:53.202Z,-0.55
2023-02-09T08:15:23.998Z,-0.10
2023-02-09T08:17:55.359Z,-0.76
2023-02-09T08:20:28.589Z,-0.91
2023-02-09T08:23:03.014Z,-0.41
2023-02-09T08:25:31.296Z,-0.31
2023-02-09T08:27:59.719Z,-0.24
2023-02-09T08:30:28.199Z,-0.28
2023-02-09T08:32:56.532Z,-0.28
2023-02-09T08:35:26.259Z,-0.07
2023-02-09T08:37:54.618Z,-0.22
2023-02-09T08:40:22.947Z,0.51
2023-02-09T08:42:51.239Z,0.39
2023-02-09T08:45:19.827Z,0.78
2023-02-09T08:47:48.167Z,0.30
2023-02-09T08:50:16.871Z,0.82
2023-02-09T08:52:46.557Z,0.74
2023-02-09T08:55:15.721Z,0.88
2023-02-09T08:57:44.825Z,1.23
2023-02-09T09:00:16.613Z,0.55
2023-02-09T09:02:44.922Z,0.72
2023-02-09T09:05:13.205Z,0.75
2023-02-09T09:07:41.741Z,0.95
2023-02-09T09:10:12.451Z,1.61
2023-02-09T09:12:40.864Z,1.89
2023-02-09T09:15:09.993Z,1.57
2023-02-09T09:17:38.327Z,1.24
2023-02-09T09:20:07.534Z,1.52
2023-02-09T09:22:35.845Z,-0.19
2023-02-09T09:25:04.368Z,0.48
2023-02-09T09:27:34.962Z,-0.01
2023-02-09T09:30:07.111Z,-0.02
2023-02-09T09:32:35.579Z,0.08
2023-02-09T09:35:04.036Z,0.07
2023-02-09T09:37:34.589Z,-0.08
2023-02-09T09:40:03.044Z,0.29
2023-02-09T09:42:37.196Z,0.30
2023-02-09T09:45:08.011Z,0.21
2023-02-09T09:47:39.390Z,0.33
2023-02-09T09:50:14.952Z,0.88
2023-02-09T09:52:47.460Z,1.18
2023-02-09T09:55:24.382Z,0.87
2023-02-09T09:57:57.069Z,1.12
2023-02-09T10:00:27.491Z,0.93
2023-02-09T10:02:55.983Z,0.84
2023-02-09T10:05:26.929Z,1.11
2023-02-09T10:08:01.270Z,1.42
2023-02-09T10:10:39.222Z,1.50
2023-02-09T10:13:19.356Z,1.92
2023-02-09T10:15:49.428Z,1.73
2023-02-09T10:18:21.137Z,1.48
2023-02-09T10:20:51.994Z,1.43
2023-02-09T10:23:25.297Z,1.57
2023-02-09T10:26:01.730Z,1.32
2023-02-09T10:28:34.144Z,1.63
2023-02-09T10:31:10.973Z,1.25
2023-02-09T10:33:43.917Z,1.44
2023-02-09T10:36:26.056Z,2.00
2023-02-09T10:39:03.249Z,2.02
2023-02-09T10:41:35.222Z,2.44
2023-02-09T10:44:10.162Z,3.15
2023-02-09T10:46:39.183Z,2.19
2023-02-09T10:49:28.815Z,2.65
2023-02-09T10:52:07.784Z,2.45
2023-02-09T10:54:36.059Z,2.58
2023-02-09T10:57:22.074Z,2.63
2023-02-09T10:59:56.868Z,3.67
2023-02-09T11:02:36.965Z,3.18
2023-02-09T11:05:27.260Z,2.47
2023-02-09T11:08:02.406Z,3.31
2023-02-09T11:10:34.968Z,2.74
2023-02-09T11:13:03.466Z,3.80
2023-02-09T11:15:39.611Z,4.74
2023-02-09T11:18:15.870Z,3.19
2023-02-09T11:20:51.954Z,4.75
2023-02-09T11:23:38.541Z,3.93
2023-02-09T11:26:14.426Z,3.14
2023-02-09T11:28:52.633Z,3.33
2023-02-09T11:31:53.757Z,3.62
2023-02-09T11:34:54.156Z,3.13
2023-02-09T11:37:37.255Z,3.34
2023-02-09T11:40:20.664Z,3.30
2023-02-09T11:42:54.777Z,4.13
2023-02-09T11:45:30.665Z,3.61
2023-02-09T11:48:05.640Z,3.63
2023-02-09T11:50:41.702Z,3.37
2023-02-09T11:53:21.314Z,3.52
2023-02-09T11:55:54.683Z,3.42
2023-02-09T11:58:33.799Z,4.12
2023-02-09T12:01:15.961Z,4.03
2023-02-09T12:03:56.433Z,4.13
2023-02-09T12:06:26.632Z,4.85
2023-02-09T12:09:08.669Z,5.36
2023-02-09T12:12:03.489Z,3.89
2023-02-09T12:14:49.176Z,5.04
2023-02-09T12:17:22.542Z,6.11
2023-02-09T12:19:57.364Z,6.15
2023-02-09T12:23:16.727Z,5.54
2023-02-09T12:25:55.194Z,4.49
2023-02-09T12:28:43.516Z,4.82
2023-02-09T12:31:22.711Z,4.94
2023-02-09T12:34:28.435Z,5.32
2023-02-09T12:37:27.259Z,5.22
2023-02-09T12:40:37.394Z,4.30
2023-02-09T12:43:28.470Z,4.14
2023-02-09T12:46:20.108Z,4.39
2023-02-09T12:48:54.231Z,4.71
2023-02-09T12:51:57.791Z,5.97
2023-02-09T12:54:35.799Z,4.62
2023-02-09T12:57:53.561Z,4.83
2023-02-09T13:00:44.529Z,4.81
2023-02-09T13:03:18.678Z,4.96
2023-02-09T13:05:49.211Z,5.04
2023-02-09T13:08:25.244Z,5.50
2023-02-09T13:11:00.718Z,4.83
2023-02-09T13:13:36.184Z,5.69
2023-02-09T13:16:33.610Z,6.76
2023-02-09T13:19:14.598Z,6.21
2023-02-09T13:21:54.025Z,6.56
2023-02-09T13:24:32.045Z,7.00
2023-02-09T13:27:01.026Z,6.42
2023-02-09T13:29:31.514Z,6.63
2023-02-09T13:32:17.708Z,6.54
2023-02-09T13:34:53.074Z,7.65
2023-02-09T13:37:28.164Z,7.35
2023-02-09T13:40:00.798Z,7.09
2023-02-09T13:42:32.133Z,7.52
2023-02-09T13:45:00.807Z,6.69
2023-02-09T13:47:30.579Z,6.59
2023-02-09T13:50:01.180Z,6.99
2023-02-09T13:52:36.360Z,7.67
2023-02-09T13:55:13.076Z,7.19
2023-02-09T13:57:43.877Z,7.64
2023-02-09T14:00:22.226Z,7.22
2023-02-09T14:02:55.074Z,7.30
2023-02-09T14:05:31.673Z,7.52
2023-02-09T14:08:00.763Z,7.09
2023-02-09T14:10:30.599Z,6.97
2023-02-09T14:13:03.466Z,6.18
2023-02-09T14:15:56.418Z,7.08
2023-02-09T14:18:35.041Z,7.37
2023-02-09T14:21:14.656Z,7.36
2023-02-09T14:23:44.606Z,8.36
2023-02-09T14:26:23.876Z,7.24
2023-02-09T14:28:55.504Z,8.28
2023-02-09T14:31:25.722Z,7.54
2023-02-09T14:33:57.816Z,7.74
2023-02-09T14:36:32.348Z,8.02
2023-02-09T14:39:20.951Z,7.66
2023-02-09T14:42:15.028Z,7.16
2023-02-09T14:44:47.868Z,7.63
2023-02-09T14:47:31.358Z,7.24
2023-02-09T14:50:01.770Z,7.98
2023-02-09T14:52:33.089Z,7.21
2023-02-09T14:55:06.698Z,7.22
2023-02-09T14:57:37.076Z,6.92
2023-02-09T15:00:17.834Z,7.19
2023-02-09T15:02:47.181Z,6.90
2023-02-09T15:05:17.152Z,7.20
2023-02-09T15:07:48.026Z,7.12
2023-02-09T15:10:24.734Z,6.63
2023-02-09T15:12:55.973Z,6.55
2023-02-09T15:15:25.659Z,6.86
2023-02-09T15:17:55.224Z,6.15
2023-02-09T15:20:25.560Z,7.04
2023-02-09T15:22:55.061Z,6.83
2023-02-09T15:25:24.624Z,6.78
2023-02-09T15:27:54.582Z,6.70
2023-02-09T15:30:25.464Z,7.03
2023-02-09T15:32:54.620Z,6.80
2023-02-09T15:35:26.321Z,6.90
2023-02-09T15:37:59.472Z,7.02
2023-02-09T15:40:49.388Z,6.71
2023-02-09T15:43:36.947Z,6.11
2023-02-09T15:46:23.626Z,6.44
2023-02-09T15:48:52.204Z,6.27
2023-02-09T15:51:22.969Z,6.20
2023-02-09T15:53:52.319Z,6.44
2023-02-09T15:56:20.816Z,6.43
2023-02-09T15:58:51.590Z,6.04
2023-02-09T16:01:20.374Z,5.84
2023-02-09T16:03:49.100Z,6.06
2023-02-09T16:06:21.361Z,6.01
2023-02-09T16:08:54.307Z,6.04
2023-02-09T16:11:27.170Z,6.12
2023-02-09T16:13:56.194Z,6.41
2023-02-09T16:16:28.041Z,6.25
2023-02-09T16:18:56.415Z,6.19
2023-02-09T16:21:27.320Z,5.93
2023-02-09T16:23:58.679Z,5.26
2023-02-09T16:26:28.840Z,5.52
2023-02-09T16:28:58.028Z,4.68
2023-02-09T16:31:26.763Z,4.75
2023-02-09T16:33:55.160Z,5.21
2023-02-09T16:36:25.932Z,4.42
2023-02-09T16:38:54.244Z,4.86
2023-02-09T16:41:41.289Z,4.77
2023-02-09T16:44:17.080Z,4.44
2023-02-09T16:46:46.927Z,4.46
2023-02-09T16:49:33.156Z,4.22
2023-02-09T16:52:05.647Z,4.27
2023-02-09T16:54:42.423Z,4.01
2023-02-09T16:57:17.998Z,4.33
2023-02-09T16:59:46.598Z,3.92
2023-02-09T17:02:38.021Z,4.00
2023-02-09T17:05:17.963Z,4.19
2023-02-09T17:07:54.412Z,4.00
2023-02-09T17:10:26.118Z,3.99
2023-02-09T17:12:55.818Z,3.65
2023-02-09T17:15:30.972Z,3.68
2023-02-09T17:18:02.829Z,3.82
2023-02-09T17:20:38.157Z,3.96
2023-02-09T17:23:06.609Z,4.17
2023-02-09T17:25:34.901Z,4.25
2023-02-09T17:28:05.580Z,3.55
2023-02-09T17:30:34.616Z,3.39
2023-02-09T17:33:06.145Z,3.52
2023-02-09T17:36:10.064Z,3.55
2023-02-09T17:38:29.906Z,3.82
2023-02-09T17:41:00.249Z,3.21
2023-02-09T17:43:32.264Z,3.92
2023-02-09T17:46:00.697Z,3.61
2023-02-09T17:48:30.130Z,3.69
2023-02-09T17:51:00.235Z,3.96
2023-02-09T17:53:33.130Z,3.45
2023-02-09T17:56:02.507Z,3.08
2023-02-09T17:58:32.336Z,3.18
2023-02-09T18:01:00.751Z,3.54
2023-02-09T18:03:29.193Z,3.73
2023-02-09T18:06:01.535Z,3.32
2023-02-09T18:08:31.101Z,3.61
2023-02-09T18:10:59.541Z,2.92
2023-02-09T18:13:28.002Z,3.53
2023-02-09T18:15:57.675Z,2.90
2023-02-09T18:18:26.048Z,3.08
2023-02-09T18:20:56.401Z,2.89
2023-02-09T18:23:25.215Z,3.22
2023-02-09T18:25:53.691Z,2.83
2023-02-09T18:28:22.116Z,3.44
2023-02-09T18:30:50.710Z,3.19
2023-02-09T18:33:20.379Z,2.83
2023-02-09T18:35:50.808Z,2.95
2023-02-09T18:38:19.192Z,2.99
2023-02-09T18:40:47.565Z,2.62
2023-02-09T18:43:16.132Z,2.82
2023-02-09T18:45:45.239Z,2.74
2023-02-09T18:48:13.944Z,2.70
2023-02-09T18:50:43.672Z,2.34
2023-02-09T18:53:13.161Z,2.14
2023-02-09T18:55:41.876Z,1.37
2023-02-09T18:58:10.293Z,1.99
2023-02-09T19:00:40.915Z,2.20
2023-02-09T19:03:09.196Z,1.99
2023-02-09T19:05:37.514Z,1.54
2023-02-09T19:08:08.126Z,1.81
2023-02-09T19:10:36.630Z,1.77
2023-02-09T19:13:07.388Z,1.52
2023-02-09T19:15:39.656Z,1.33
2023-02-09T19:18:08.377Z,1.39
2023-02-09T19:20:39.737Z,1.42
2023-02-09T19:23:09.506Z,1.42
2023-02-09T19:25:38.488Z,1.45
2023-02-09T19:28:06.932Z,1.52
2023-02-09T19:30:35.242Z,1.78
2023-02-09T19:33:03.544Z,1.74
2023-02-09T19:35:31.986Z,1.72
2023-02-09T19:38:00.610Z,1.59
2023-02-09T19:40:36.118Z,1.72
2023-02-09T19:43:05.905Z,1.18
2023-02-09T19:45:37.452Z,1.54
2023-02-09T19:48:07.182Z,1.41
2023-02-09T19:50:36.906Z,1.18
2023-02-09T19:53:06.253Z,0.93
2023-02-09T19:55:36.155Z,1.15
2023-02-09T19:58:04.595Z,1.37
2023-02-09T20:00:33.461Z,1.21
2023-02-09T20:03:01.913Z,0.86
2023-02-09T20:05:30.330Z,0.53
2023-02-09T20:07:58.686Z,0.86
2023-02-09T20:10:29.312Z,1.22
2023-02-09T20:12:58.955Z,0.84
2023-02-09T20:15:27.389Z,0.61
2023-02-09T20:17:55.856Z,0.10
2023-02-09T20:20:24.321Z,-0.17
2023-02-09T20:22:52.733Z,-0.01
2023-02-09T20:25:21.067Z,-0.17
2023-02-09T20:27:49.983Z,-0.18
2023-02-09T20:30:19.959Z,0.04
2023-02-09T20:32:48.274Z,0.02
2023-02-09T20:35:18.741Z,0.22
2023-02-09T20:37:47.042Z,0.73
2023-02-09T20:40:15.490Z,0.28
2023-02-09T20:43:01.315Z,0.69
2023-02-09T20:45:48.386Z,0.37
2023-02-09T20:48:17.348Z,0.36
2023-02-09T20:50:46.195Z,-0.15
2023-02-09T20:53:14.625Z,-0.36
2023-02-09T20:55:43.714Z,-0.19
2023-02-09T20:58:14.918Z,0.74
2023-02-09T21:00:46.839Z,0.12
2023-02-09T21:03:15.339Z,0.36
2023-02-09T21:05:43.751Z,0.28
2023-02-09T21:08:14.235Z,0.38
2023-02-09T21:10:42.679Z,0.48
2023-02-09T21:13:11.164Z,0.32
2023-02-09T21:15:41.453Z,0.37
2023-02-09T21:18:11.192Z,0.38
2023-02-09T21:20:41.107Z,0.57
2023-02-09T21:23:11.887Z,0.40
2023-02-09T21:25:40.213Z,0.87
2023-02-09T21:28:08.615Z,0.31
2023-02-09T21:30:40.818Z,0.12
2023-02-09T21:33:09.282Z,0.69
2023-02-09T21:35:41.795Z,0.61
2023-02-09T21:38:10.126Z,0.27
2023-02-09T21:40:38.851Z,0.20
2023-02-09T21:43:07.252Z,0.43
2023-02-09T21:45:38.989Z,0.13
2023-02-09T21:48:07.644Z,0.13
2023-02-09T21:50:38.872Z,0.65
2023-02-09T21:53:08.546Z,0.36
2023-02-09T21:55:37.426Z,-0.09
2023-02-09T21:58:05.748Z,-0.64
2023-02-09T22:02:38.686Z,-0.29
2023-02-09T22:05:08.449Z,-0.35
2023-02-09T22:07:37.189Z,-0.20
2023-02-09T22:10:06.390Z,-0.52
2023-02-09T22:12:36.318Z,-0.31
2023-02-09T22:15:05.030Z,-0.31
2023-02-09T22:17:33.390Z,-0.51
2023-02-09T22:20:03.185Z,-0.38
2023-02-09T22:22:31.565Z,-0.52
2023-02-09T22:24:59.995Z,-0.69
2023-02-09T22:27:28.416Z,-0.21
2023-02-09T22:29:56.767Z,-0.41
2023-02-09T22:32:25.065Z,-0.10
2023-02-09T22:34:53.450Z,-0.35
2023-02-09T22:37:23.344Z,-0.36
2023-02-09T22:39:51.606Z,-0.45
2023-02-09T22:42:19.940Z,-0.67
2023-02-09T22:44:50.777Z,-0.34
2023-02-09T22:47:19.095Z,-0.01
2023-02-09T22:49:47.496Z,-0.33
2023-02-09T22:52:16.059Z,-0.56
2023-02-09T22:54:45.733Z,-0.50
2023-02-09T22:57:14.019Z,-0.44
2023-02-09T22:59:42.388Z,-0.19
2023-02-09T23:02:12.543Z,-0.53
2023-02-09T23:04:41.288Z,-0.50
2023-02-09T23:07:11.958Z,0.02
2023-02-09T23:09:40.412Z,-0.59
2023-02-09T23:12:10.104Z,-0.72
2023-02-09T23:14:38.493Z,-1.08
2023-02-09T23:17:07.062Z,-0.84
2023-02-09T23:19:35.402Z,-0.53
2023-02-09T23:22:03.758Z,-1.02
2023-02-09T23:24:32.136Z,-0.25
2023-02-09T23:27:00.498Z,-0.79
2023-02-09T23:29:30.698Z,-0.58
2023-02-09T23:31:59.247Z,-0.69
2023-02-09T23:34:27.651Z,-0.91
2023-02-09T23:36:57.359Z,-1.05
2023-02-09T23:39:28.725Z,-0.93
2023-02-09T23:41:57.162Z,-0.74
2023-02-09T23:44:25.488Z,-0.57
2023-02-09T23:46:55.145Z,-1.38
2023-02-09T23:49:23.739Z,-1.32
2023-02-09T23:51:52.177Z,-0.84
2023-02-09T23:54:20.552Z,-1.12
2023-02-09T23:56:50.213Z,-1.01
2023-02-09T23:59:18.487Z,-1.14
